createdAt,value
2019-01-08T00:02:46.425Z,7.30
2019-01-08T00:05:12.184Z,8.00
2019-01-08T00:07:37.961Z,6.83
2019-01-08T00:10:03.928Z,7.30
2019-01-08T00:12:29.798Z,8.13
2019-01-08T00:14:55.680Z,7.17
2019-01-08T00:17:21.449Z,7.13
2019-01-08T00:19:47.255Z,7.17
2019-01-08T00:22:13.115Z,6.63
2019-01-08T00:24:38.870Z,7.63
2019-01-08T00:27:04.782Z,7.23
2019-01-08T00:29:30.540Z,7.00
2019-01-08T00:31:56.318Z,7.17
2019-01-08T00:34:22.069Z,6.90
2019-01-08T00:36:47.833Z,6.77
2019-01-08T00:39:13.593Z,7.23
2019-01-08T00:41:39.420Z,7.10
2019-01-08T00:44:05.323Z,7.50
2019-01-08T00:46:31.081Z,7.93
2019-01-08T00:48:56.837Z,6.03
2019-01-08T00:51:22.601Z,8.40
2019-01-08T00:53:48.434Z,7.93
2019-01-08T00:56:14.221Z,7.50
2019-01-08T00:58:39.987Z,7.67
2019-01-08T01:01:05.768Z,7.50
2019-01-08T01:03:31.520Z,6.83
2019-01-08T01:05:57.289Z,6.73
2019-01-08T01:08:23.046Z,8.07
2019-01-08T01:10:48.801Z,7.00
2019-01-08T01:13:14.569Z,7.33
2019-01-08T01:15:40.441Z,7.03
2019-01-08T01:18:06.210Z,6.77
2019-01-08T01:20:32.068Z,6.50
2019-01-08T01:22:57.832Z,6.83
2019-01-08T01:25:23.600Z,6.37
2019-01-08T01:27:49.378Z,6.33
2019-01-08T01:30:15.133Z,6.80
2019-01-08T01:32:40.907Z,7.70
2019-01-08T01:35:06.671Z,7.67
2019-01-08T01:37:32.441Z,7.47
2019-01-08T01:39:58.191Z,6.50
2019-01-08T01:42:23.960Z,6.03
2019-01-08T01:44:49.727Z,6.40
2019-01-08T01:47:15.501Z,6.33
2019-01-08T01:49:41.261Z,6.60
2019-01-08T01:52:07.039Z,6.93
2019-01-08T01:54:32.823Z,6.73
2019-01-08T01:56:58.582Z,6.73
2019-01-08T01:59:24.359Z,5.73
2019-01-08T02:01:50.122Z,6.60
2019-01-08T02:04:15.882Z,4.50
2019-01-08T02:06:41.649Z,3.87
2019-01-08T02:09:07.405Z,3.93
2019-01-08T02:11:33.169Z,5.00
2019-01-08T02:13:58.957Z,4.47
2019-01-08T02:16:24.716Z,4.90
2019-01-08T02:18:50.499Z,5.20
2019-01-08T02:21:16.249Z,6.13
2019-01-08T02:23:42.024Z,5.83
2019-01-08T02:26:07.775Z,6.03
2019-01-08T02:28:33.532Z,5.83
2019-01-08T02:30:59.296Z,7.20
2019-01-08T02:33:25.067Z,5.53
2019-01-08T02:35:50.916Z,7.20
2019-01-08T02:38:16.681Z,7.40
2019-01-08T02:40:42.446Z,6.93
2019-01-08T02:43:08.213Z,6.83
2019-01-08T02:45:33.966Z,6.57
2019-01-08T02:47:59.734Z,7.00
2019-01-08T02:50:25.491Z,8.10
2019-01-08T02:52:51.255Z,7.50
2019-01-08T02:55:17.015Z,6.00
2019-01-08T02:57:42.795Z,7.43
2019-01-08T03:00:50.228Z,8.13
2019-01-08T03:03:16.000Z,6.13
2019-01-08T03:05:41.754Z,6.97
2019-01-08T03:08:07.517Z,7.47
2019-01-08T03:10:33.374Z,6.47
2019-01-08T03:12:59.143Z,7.07
2019-01-08T03:15:25.014Z,7.03
2019-01-08T03:17:50.784Z,6.83
2019-01-08T03:20:16.613Z,8.00
2019-01-08T03:22:42.427Z,7.83
2019-01-08T03:25:08.180Z,7.90
2019-01-08T03:27:33.932Z,6.93
2019-01-08T03:29:59.723Z,7.90
2019-01-08T03:32:25.480Z,7.70
2019-01-08T03:34:51.245Z,7.30
2019-01-08T03:37:17.000Z,6.73
2019-01-08T03:39:42.764Z,6.80
2019-01-08T03:42:08.521Z,7.50
2019-01-08T03:44:34.289Z,8.73
2019-01-08T03:47:00.039Z,8.83
2019-01-08T03:49:25.801Z,7.70
2019-01-08T03:51:51.562Z,7.37
2019-01-08T03:54:17.337Z,6.87
2019-01-08T03:56:43.094Z,8.57
2019-01-08T03:59:08.863Z,7.97
2019-01-08T04:01:34.620Z,7.50
2019-01-08T04:04:00.369Z,6.87
2019-01-08T04:06:26.138Z,8.23
2019-01-08T04:08:51.910Z,8.43
2019-01-08T04:11:17.679Z,8.13
2019-01-08T04:13:43.435Z,8.30
2019-01-08T04:16:09.217Z,6.13
2019-01-08T04:18:34.967Z,7.47
2019-01-08T04:21:00.739Z,5.93
2019-01-08T04:23:26.491Z,5.87
2019-01-08T04:25:52.258Z,5.70
2019-01-08T04:28:18.015Z,5.90
2019-01-08T04:30:43.799Z,5.23
2019-01-08T04:33:09.554Z,6.13
2019-01-08T04:35:35.356Z,5.50
2019-01-08T04:38:01.112Z,5.83
2019-01-08T04:40:26.879Z,5.97
2019-01-08T04:42:52.639Z,5.53
2019-01-08T04:45:18.435Z,4.30
2019-01-08T04:47:44.195Z,5.60
2019-01-08T04:50:10.005Z,4.80
2019-01-08T04:52:35.756Z,4.57
2019-01-08T04:55:01.511Z,5.70
2019-01-08T04:57:27.281Z,5.70
2019-01-08T04:59:58.920Z,5.77
2019-01-08T05:02:20.742Z,6.07
2019-01-08T05:04:46.509Z,6.03
2019-01-08T05:07:12.283Z,6.93
2019-01-08T05:09:38.064Z,5.50
2019-01-08T05:12:03.840Z,6.37
2019-01-08T05:14:29.611Z,6.93
2019-01-08T05:16:55.381Z,6.53
2019-01-08T05:19:21.137Z,6.73
2019-01-08T05:21:47.110Z,6.23
2019-01-08T05:24:12.879Z,6.30
2019-01-08T05:26:38.653Z,7.03
2019-01-08T05:29:04.411Z,6.83
2019-01-08T05:31:30.241Z,8.33
2019-01-08T05:33:56.016Z,6.30
2019-01-08T05:36:21.791Z,7.70
2019-01-08T05:38:47.556Z,7.73
2019-01-08T05:41:13.334Z,6.93
2019-01-08T05:43:39.129Z,7.83
2019-01-08T05:46:04.882Z,7.27
2019-01-08T05:48:30.651Z,7.53
2019-01-08T05:50:57.080Z,6.63
2019-01-08T05:53:22.813Z,6.00
2019-01-08T05:55:48.575Z,5.73
2019-01-08T05:58:14.366Z,6.30
2019-01-08T06:00:40.128Z,7.13
2019-01-08T06:03:05.904Z,6.30
2019-01-08T06:05:31.669Z,7.57
2019-01-08T06:07:57.450Z,7.47
2019-01-08T06:10:43.106Z,8.40
2019-01-08T06:13:08.878Z,6.07
2019-01-08T06:15:34.653Z,8.57
2019-01-08T06:18:00.421Z,8.57
2019-01-08T06:20:26.180Z,8.27
2019-01-08T06:22:51.962Z,8.83
2019-01-08T06:25:17.720Z,7.43
2019-01-08T06:27:43.474Z,7.20
2019-01-08T06:30:09.245Z,6.67
2019-01-08T06:32:35.004Z,6.70
2019-01-08T06:35:00.780Z,5.07
2019-01-08T06:37:26.548Z,5.90
2019-01-08T06:39:52.319Z,8.33
2019-01-08T06:42:18.074Z,8.07
2019-01-08T06:44:43.852Z,6.60
2019-01-08T06:47:09.620Z,6.27
2019-01-08T06:49:35.390Z,6.03
2019-01-08T06:52:01.160Z,6.20
2019-01-08T06:54:26.933Z,5.17
2019-01-08T06:56:52.694Z,6.10
2019-01-08T06:59:18.470Z,5.37
2019-01-08T07:01:44.226Z,5.80
2019-01-08T07:04:10.000Z,6.60
2019-01-08T07:06:35.753Z,5.63
2019-01-08T07:09:01.544Z,5.90
2019-01-08T07:11:27.306Z,5.23
2019-01-08T07:13:53.083Z,6.57
2019-01-08T07:16:18.860Z,5.10
2019-01-08T07:18:44.617Z,5.20
2019-01-08T07:21:11.818Z,4.57
2019-01-08T07:23:38.057Z,6.87
2019-01-08T07:26:03.837Z,4.13
2019-01-08T07:28:29.596Z,5.00
2019-01-08T07:30:55.372Z,4.97
2019-01-08T07:33:21.128Z,5.10
2019-01-08T07:35:46.894Z,4.93
2019-01-08T07:38:12.650Z,5.53
2019-01-08T07:40:38.424Z,4.63
2019-01-08T07:43:04.191Z,5.23
2019-01-08T07:45:29.978Z,6.40
2019-01-08T07:47:55.733Z,5.00
2019-01-08T07:50:21.501Z,5.33
2019-01-08T07:52:47.259Z,5.40
2019-01-08T07:55:13.026Z,5.20
2019-01-08T07:57:38.788Z,5.90
2019-01-08T08:00:50.108Z,5.00
2019-01-08T08:03:13.939Z,5.17
2019-01-08T08:05:39.726Z,4.83
2019-01-08T08:08:05.499Z,6.00
2019-01-08T08:10:31.273Z,5.90
2019-01-08T08:12:57.024Z,5.53
2019-01-08T08:15:22.832Z,6.50
2019-01-08T08:17:48.586Z,5.57
2019-01-08T08:20:14.373Z,6.80
2019-01-08T08:22:40.130Z,5.60
2019-01-08T08:25:05.916Z,5.20
2019-01-08T08:27:31.669Z,7.33
2019-01-08T08:29:57.441Z,5.60
2019-01-08T08:32:23.196Z,6.27
2019-01-08T08:34:48.973Z,5.93
2019-01-08T08:37:14.744Z,6.43
2019-01-08T08:39:40.500Z,6.40
2019-01-08T08:42:06.282Z,5.67
2019-01-08T08:44:32.050Z,5.77
2019-01-08T08:46:57.822Z,5.10
2019-01-08T08:49:23.583Z,4.03
2019-01-08T08:51:49.364Z,5.27
2019-01-08T08:54:15.114Z,6.20
2019-01-08T08:56:40.888Z,6.07
2019-01-08T08:59:06.662Z,5.80
2019-01-08T09:01:32.435Z,4.67
2019-01-08T09:03:58.208Z,5.53
2019-01-08T09:06:23.974Z,4.63
2019-01-08T09:08:49.739Z,4.33
2019-01-08T09:11:15.526Z,4.07
2019-01-08T09:13:41.281Z,3.73
2019-01-08T09:16:07.067Z,3.80
2019-01-08T09:18:33.791Z,4.33
2019-01-08T09:21:00.524Z,3.17
2019-01-08T09:23:26.290Z,3.90
2019-01-08T09:25:52.066Z,3.03
2019-01-08T09:28:17.830Z,3.27
2019-01-08T09:30:43.591Z,2.27
2019-01-08T09:33:09.370Z,3.07
2019-01-08T09:35:35.148Z,2.73
2019-01-08T09:38:00.919Z,2.67
2019-01-08T09:40:26.676Z,2.23
2019-01-08T09:42:52.445Z,2.03
2019-01-08T09:45:18.196Z,2.10
2019-01-08T09:47:43.965Z,2.30
2019-01-08T09:50:09.727Z,1.93
2019-01-08T09:52:35.507Z,1.90
2019-01-08T09:55:01.277Z,2.10
2019-01-08T09:57:27.050Z,1.70
2019-01-08T09:59:52.800Z,1.23
2019-01-08T10:02:18.570Z,1.80
2019-01-08T10:04:44.331Z,1.37
2019-01-08T10:07:10.110Z,1.87
2019-01-08T10:09:35.875Z,2.50
2019-01-08T10:12:01.656Z,1.70
2019-01-08T10:14:27.418Z,1.97
2019-01-08T10:16:53.199Z,1.83
2019-01-08T10:19:18.964Z,2.17
2019-01-08T10:21:44.748Z,2.47
2019-01-08T10:24:10.525Z,2.13
2019-01-08T10:26:36.324Z,2.50
2019-01-08T10:29:02.084Z,1.97
2019-01-08T10:31:32.303Z,2.60
2019-01-08T10:33:55.511Z,2.70
2019-01-08T10:36:21.270Z,3.53
2019-01-08T10:38:47.037Z,2.60
2019-01-08T10:41:12.798Z,2.77
2019-01-08T10:43:38.570Z,3.13
2019-01-08T10:46:04.323Z,3.27
2019-01-08T10:48:30.098Z,3.53
2019-01-08T10:50:55.855Z,2.60
2019-01-08T10:53:21.636Z,2.77
2019-01-08T10:55:47.389Z,2.53
2019-01-08T10:58:13.161Z,1.80
2019-01-08T11:00:38.923Z,2.07
2019-01-08T11:03:04.712Z,2.07
2019-01-08T11:05:30.488Z,1.77
2019-01-08T11:07:56.267Z,1.30
2019-01-08T11:10:22.020Z,2.00
2019-01-08T11:12:47.815Z,1.90
2019-01-08T11:15:13.588Z,1.90
2019-01-08T11:17:39.359Z,1.80
2019-01-08T11:20:46.798Z,3.00
2019-01-08T11:23:12.570Z,2.03
2019-01-08T11:25:38.440Z,2.30
2019-01-08T11:28:04.211Z,2.30
2019-01-08T11:30:29.993Z,1.80
2019-01-08T11:32:55.783Z,1.93
2019-01-08T11:35:21.533Z,2.10
2019-01-08T11:37:47.301Z,2.20
2019-01-08T11:40:13.061Z,1.63
2019-01-08T11:42:38.819Z,1.90
2019-01-08T11:45:46.259Z,1.60
2019-01-08T11:48:12.034Z,1.77
2019-01-08T11:50:37.789Z,1.80
2019-01-08T11:53:03.578Z,1.47
2019-01-08T11:55:29.358Z,1.87
2019-01-08T11:57:55.116Z,1.87
2019-01-08T12:00:20.882Z,1.70
2019-01-08T12:02:47.907Z,1.80
2019-01-08T12:05:14.319Z,1.70
2019-01-08T12:07:40.083Z,1.73
2019-01-08T12:10:05.850Z,2.07
2019-01-08T12:12:31.726Z,1.90
2019-01-08T12:14:57.493Z,1.90
2019-01-08T12:17:23.270Z,1.70
2019-01-08T12:19:49.043Z,2.00
2019-01-08T12:22:14.800Z,1.80
2019-01-08T12:24:40.562Z,2.03
2019-01-08T12:27:06.357Z,2.17
2019-01-08T12:29:32.135Z,1.80
2019-01-08T12:32:05.615Z,2.50
2019-01-08T12:34:25.578Z,1.73
2019-01-08T12:36:51.336Z,1.97
2019-01-08T12:39:17.106Z,1.50
2019-01-08T12:41:42.864Z,1.80
2019-01-08T12:44:08.653Z,1.97
2019-01-08T12:46:54.299Z,2.00
2019-01-08T12:49:20.078Z,2.20
2019-01-08T12:51:45.855Z,2.07
2019-01-08T12:54:11.625Z,2.23
2019-01-08T12:56:37.381Z,2.20
2019-01-08T12:59:03.181Z,1.90
2019-01-08T13:01:28.953Z,2.27
2019-01-08T13:03:54.746Z,1.93
2019-01-08T13:06:20.507Z,1.90
2019-01-08T13:08:46.276Z,2.10
2019-01-08T13:11:12.071Z,1.87
2019-01-08T13:13:37.818Z,2.40
2019-01-08T13:16:03.610Z,2.10
2019-01-08T13:18:29.366Z,2.27
2019-01-08T13:20:55.155Z,2.10
2019-01-08T13:23:20.934Z,2.20
2019-01-08T13:25:46.731Z,1.67
2019-01-08T13:28:12.485Z,1.50
2019-01-08T13:30:38.262Z,1.40
2019-01-08T13:33:04.016Z,1.50
2019-01-08T13:35:29.785Z,1.60
2019-01-08T13:37:55.542Z,2.20
2019-01-08T13:40:21.323Z,1.70
2019-01-08T13:42:47.077Z,1.40
2019-01-08T13:45:12.845Z,1.50
2019-01-08T13:47:38.610Z,1.50
2019-01-08T13:50:46.073Z,1.23
2019-01-08T13:53:11.851Z,1.47
2019-01-08T13:55:57.529Z,1.70
2019-01-08T13:58:23.309Z,1.40
2019-01-08T14:00:49.079Z,1.10
2019-01-08T14:03:14.835Z,1.60
2019-01-08T14:05:40.602Z,1.40
2019-01-08T14:08:06.366Z,1.20
2019-01-08T14:10:32.140Z,1.23
2019-01-08T14:12:57.916Z,1.40
2019-01-08T14:15:23.697Z,1.10
2019-01-08T14:17:49.459Z,1.60
2019-01-08T14:20:15.243Z,1.30
2019-01-08T14:22:41.008Z,1.10
2019-01-08T14:25:06.785Z,1.33
2019-01-08T14:27:32.558Z,1.20
2019-01-08T14:29:58.328Z,1.20
2019-01-08T14:32:24.085Z,1.10
2019-01-08T14:34:49.869Z,1.40
2019-01-08T14:37:15.643Z,1.13
2019-01-08T14:39:41.420Z,1.27
2019-01-08T14:42:07.195Z,1.20
2019-01-08T14:44:32.947Z,1.27
2019-01-08T14:46:58.718Z,1.10
2019-01-08T14:49:24.497Z,1.23
2019-01-08T14:51:50.269Z,0.90
2019-01-08T14:54:16.041Z,1.30
2019-01-08T14:56:41.812Z,1.20
2019-01-08T14:59:07.573Z,1.27
2019-01-08T15:01:33.349Z,1.50
2019-01-08T15:03:59.134Z,1.10
2019-01-08T15:06:24.911Z,1.00
2019-01-08T15:08:50.690Z,1.23
2019-01-08T15:11:16.471Z,1.23
2019-01-08T15:13:42.220Z,1.50
2019-01-08T15:16:08.010Z,1.20
2019-01-08T15:18:33.980Z,1.10
2019-01-08T15:20:59.777Z,1.17
2019-01-08T15:23:25.641Z,1.20
2019-01-08T15:25:51.591Z,2.40
2019-01-08T15:28:17.339Z,3.20
2019-01-08T15:30:43.093Z,1.50
2019-01-08T15:33:08.866Z,1.90
2019-01-08T15:35:34.616Z,2.60
2019-01-08T15:38:00.388Z,2.60
2019-01-08T15:40:26.143Z,4.30
2019-01-08T15:42:51.921Z,3.70
2019-01-08T15:45:17.855Z,2.70
2019-01-08T15:47:43.658Z,2.90
2019-01-08T15:50:09.419Z,1.70
2019-01-08T15:52:35.201Z,1.50
2019-01-08T15:55:00.958Z,2.50
2019-01-08T15:57:26.738Z,1.60
2019-01-08T15:59:52.514Z,1.97
2019-01-08T16:02:18.311Z,2.63
2019-01-08T16:04:44.068Z,5.07
2019-01-08T16:07:09.840Z,3.60
2019-01-08T16:09:35.606Z,9.50
2019-01-08T16:12:01.374Z,2.30
2019-01-08T16:14:27.148Z,1.60
2019-01-08T16:16:52.949Z,1.73
2019-01-08T16:19:18.725Z,1.90
2019-01-08T16:21:44.520Z,1.67
2019-01-08T16:24:10.278Z,2.10
2019-01-08T16:26:36.048Z,1.90
2019-01-08T16:29:01.833Z,1.60
2019-01-08T16:31:27.592Z,1.90
2019-01-08T16:33:53.395Z,2.90
2019-01-08T16:36:19.158Z,3.83
2019-01-08T16:38:44.933Z,3.17
2019-01-08T16:41:10.691Z,3.23
2019-01-08T16:43:36.463Z,2.20
2019-01-08T16:46:02.237Z,2.50
2019-01-08T16:48:28.020Z,1.47
2019-01-08T16:50:53.794Z,1.87
2019-01-08T16:53:19.616Z,2.03
2019-01-08T16:55:45.371Z,1.60
2019-01-08T16:58:11.158Z,1.80
2019-01-08T17:00:36.910Z,1.60
2019-01-08T17:03:02.684Z,1.90
2019-01-08T17:05:28.454Z,1.57
2019-01-08T17:07:54.248Z,1.67
2019-01-08T17:10:20.006Z,2.07
2019-01-08T17:12:45.800Z,3.70
2019-01-08T17:15:11.561Z,2.53
2019-01-08T17:17:37.325Z,2.43
2019-01-08T17:23:16.913Z,1.97
2019-01-08T17:25:47.968Z,2.13
2019-01-08T17:28:10.368Z,1.93
2019-01-08T17:30:36.120Z,1.80
2019-01-08T17:33:01.893Z,1.83
2019-01-08T17:35:47.561Z,1.90
2019-01-08T17:38:13.336Z,2.00
2019-01-08T17:40:39.098Z,1.47
2019-01-08T17:43:04.853Z,2.37
2019-01-08T17:48:16.112Z,1.37
2019-01-08T17:50:41.966Z,1.70
2019-01-08T17:53:07.770Z,1.40
2019-01-08T17:55:33.537Z,1.30
2019-01-08T17:58:58.983Z,1.50
2019-01-08T18:01:24.742Z,1.40
2019-01-08T18:03:50.514Z,1.33
2019-01-08T18:06:16.280Z,1.60
2019-01-08T18:08:42.055Z,1.50
2019-01-08T18:11:07.846Z,1.37
2019-01-08T18:13:33.593Z,1.50
2019-01-08T18:15:59.379Z,1.30
2019-01-08T18:18:25.136Z,1.33
2019-01-08T18:20:50.914Z,1.67
2019-01-08T18:23:16.666Z,1.73
2019-01-08T18:25:42.449Z,1.73
2019-01-08T18:28:08.814Z,1.87
2019-01-08T18:30:34.601Z,1.60
2019-01-08T18:33:00.354Z,1.73
2019-01-08T18:35:26.126Z,1.80
2019-01-08T18:37:51.910Z,1.40
2019-01-08T18:40:17.684Z,1.50
2019-01-08T18:42:43.486Z,1.50
2019-01-08T18:45:09.252Z,1.37
2019-01-08T18:47:35.007Z,1.60
2019-01-08T18:50:00.892Z,1.67
2019-01-08T18:52:26.659Z,1.63
2019-01-08T18:54:52.437Z,1.70
2019-01-08T18:57:18.211Z,1.30
2019-01-08T18:59:44.013Z,1.63
2019-01-08T19:02:09.772Z,1.50
2019-01-08T19:04:35.564Z,1.27
2019-01-08T19:07:01.317Z,1.30
2019-01-08T19:10:08.788Z,1.57
2019-01-08T19:12:34.556Z,1.65
2019-01-08T19:15:00.523Z,1.20
2019-01-08T19:17:26.319Z,1.30
2019-01-08T19:19:52.127Z,1.60
2019-01-08T19:22:17.854Z,1.40
2019-01-08T19:24:43.634Z,1.50
2019-01-08T19:27:09.403Z,1.80
2019-01-08T19:29:35.158Z,1.20
2019-01-08T19:32:00.957Z,1.60
2019-01-08T19:34:26.733Z,1.50
2019-01-08T19:36:52.517Z,1.40
2019-01-08T19:39:18.269Z,1.43
2019-01-08T19:41:44.055Z,1.60
2019-01-08T19:44:09.806Z,1.40
2019-01-08T19:46:35.577Z,1.17
2019-01-08T19:49:01.337Z,1.10
2019-01-08T19:51:27.112Z,1.57
2019-01-08T19:53:52.891Z,1.57
2019-01-08T19:56:18.677Z,1.40
2019-01-08T19:58:44.432Z,1.40
2019-01-08T20:01:10.214Z,1.90
2019-01-08T20:03:35.987Z,1.40
2019-01-08T20:06:01.758Z,1.83
2019-01-08T20:08:27.524Z,1.30
2019-01-08T20:10:53.293Z,1.63
2019-01-08T20:13:19.067Z,1.57
2019-01-08T20:15:44.861Z,1.53
2019-01-08T20:18:10.648Z,1.40
2019-01-08T20:23:50.365Z,1.65
2019-01-08T20:26:16.143Z,1.63
2019-01-08T20:28:41.897Z,1.63
2019-01-08T20:31:07.677Z,2.00
2019-01-08T20:33:33.469Z,1.60
2019-01-08T20:35:59.238Z,1.23
2019-01-08T20:38:24.998Z,2.00
2019-01-08T20:40:50.775Z,1.70
2019-01-08T20:43:16.552Z,1.67
2019-01-08T20:45:42.314Z,1.70
2019-01-08T20:48:08.093Z,1.77
2019-01-08T20:50:33.869Z,1.50
2019-01-08T20:52:59.654Z,1.90
2019-01-08T20:55:25.435Z,2.27
2019-01-08T20:57:51.200Z,1.97
2019-01-08T21:00:17.156Z,3.20
2019-01-08T21:02:42.937Z,2.63
2019-01-08T21:05:08.690Z,2.23
2019-01-08T21:07:34.476Z,1.80
2019-01-08T21:10:00.306Z,1.40
2019-01-08T21:12:26.045Z,5.10
2019-01-08T21:14:51.887Z,3.10
2019-01-08T21:17:17.698Z,2.00
2019-01-08T21:19:43.557Z,2.27
2019-01-08T21:22:11.321Z,1.50
2019-01-08T21:24:37.079Z,1.93
2019-01-08T21:27:02.869Z,2.10
2019-01-08T21:29:28.629Z,1.73
2019-01-08T21:31:54.407Z,1.90
2019-01-08T21:34:20.197Z,1.60
2019-01-08T21:36:45.971Z,1.93
2019-01-08T21:39:11.815Z,1.77
2019-01-08T21:41:38.696Z,1.87
2019-01-08T21:44:04.589Z,1.72
2019-01-08T21:46:30.404Z,1.87
2019-01-08T21:48:56.185Z,2.27
2019-01-08T21:51:21.948Z,2.03
2019-01-08T21:53:48.494Z,2.03
2019-01-08T21:56:14.262Z,1.90
2019-01-08T21:58:40.050Z,2.47
2019-01-08T22:01:05.807Z,2.20
2019-01-08T22:03:51.618Z,2.60
2019-01-08T22:06:17.499Z,2.27
2019-01-08T22:08:43.606Z,1.83
2019-01-08T22:11:09.365Z,1.80
2019-01-08T22:13:35.135Z,2.20
2019-01-08T22:16:00.895Z,1.77
2019-01-08T22:18:26.747Z,1.80
2019-01-08T22:20:52.517Z,1.73
2019-01-08T22:23:18.330Z,2.23
2019-01-08T22:25:44.088Z,1.73
2019-01-08T22:28:09.862Z,1.60
2019-01-08T22:30:42.686Z,2.27
2019-01-08T22:33:08.476Z,2.60
2019-01-08T22:35:34.250Z,2.00
2019-01-08T22:38:00.030Z,1.90
2019-01-08T22:40:25.838Z,1.50
2019-01-08T22:42:51.620Z,2.10
2019-01-08T22:45:17.397Z,2.23
2019-01-08T22:47:43.150Z,1.97
2019-01-08T22:50:08.923Z,2.33
2019-01-08T22:52:34.943Z,2.20
2019-01-08T22:55:44.048Z,1.90
2019-01-08T22:58:09.822Z,2.20
2019-01-08T23:01:17.249Z,2.00
2019-01-08T23:03:43.027Z,1.70
2019-01-08T23:06:08.781Z,2.00
2019-01-08T23:08:34.666Z,2.00
2019-01-08T23:11:00.424Z,2.03
2019-01-08T23:13:26.192Z,2.43
2019-01-08T23:15:51.947Z,2.33
2019-01-08T23:18:17.750Z,1.93
2019-01-08T23:20:43.505Z,1.93
2019-01-08T23:23:09.266Z,1.90
2019-01-08T23:25:35.056Z,2.10
2019-01-08T23:28:00.817Z,2.07
2019-01-08T23:30:26.597Z,1.70
2019-01-08T23:32:52.358Z,2.00
2019-01-08T23:35:19.599Z,1.87
2019-01-08T23:37:45.804Z,1.70
2019-01-08T23:40:11.571Z,1.90
2019-01-08T23:42:37.335Z,1.80
2019-01-08T23:45:44.783Z,1.70
2019-01-08T23:48:10.548Z,1.50
2019-01-08T23:50:36.317Z,1.60
2019-01-08T23:53:41.857Z,2.07
2019-01-08T23:56:07.634Z,1.82
2019-01-08T23:58:33.396Z,2.03
